sensor_id;sensor_type;location;lat;lon;timestamp;temperature;humidity
31765;DHT22;18338;53.240;8.798;2023-10-31T00:01:46;12.50;99.90
31765;DHT22;18338;53.240;8.798;2023-10-31T00:04:13;12.60;99.90
31765;DHT22;18338;53.240;8.798;2023-10-31T00:06:40;12.60;99.90
31765;DHT22;18338;53.240;8.798;2023-10-31T00:09:08;12.60;99.90
31765;DHT22;18338;53.240;8.798;2023-10-31T00:11:37;12.60;99.90
31765;DHT22;18338;53.240;8.798;2023-10-31T00:14:04;12.60;99.90
31765;DHT22;18338;53.240;8.798;2023-10-31T00:16:52;12.60;99.90
31765;DHT22;18338;53.240;8.798;2023-10-31T00:19:19;12.60;99.90
31765;DHT22;18338;53.240;8.798;2023-10-31T00:21:46;12.60;99.90
31765;DHT22;18338;53.240;8.798;2023-10-31T00:24:13;12.60;99.90
31765;DHT22;18338;53.240;8.798;2023-10-31T00:26:40;12.60;99.90
31765;DHT22;18338;53.240;8.798;2023-10-31T00:29:07;12.70;99.90
31765;DHT22;18338;53.240;8.798;2023-10-31T00:31:34;12.70;99.90
31765;DHT22;18338;53.240;8.798;2023-10-31T00:34:02;12.60;99.90
31765;DHT22;18338;53.240;8.798;2023-10-31T00:36:29;12.70;99.90
31765;DHT22;18338;53.240;8.798;2023-10-31T00:38:56;12.60;99.90
31765;DHT22;18338;53.240;8.798;2023-10-31T00:41:23;12.70;99.90
31765;DHT22;18338;53.240;8.798;2023-10-31T00:43:50;12.70;99.90
31765;DHT22;18338;53.240;8.798;2023-10-31T00:46:16;12.70;99.90
31765;DHT22;18338;53.240;8.798;2023-10-31T00:48:43;12.70;99.90
31765;DHT22;18338;53.240;8.798;2023-10-31T00:51:10;12.70;99.90
31765;DHT22;18338;53.240;8.798;2023-10-31T00:53:37;12.70;99.90
31765;DHT22;18338;53.240;8.798;2023-10-31T00:56:04;12.70;99.90
31765;DHT22;18338;53.240;8.798;2023-10-31T00:58:31;12.70;99.90
31765;DHT22;18338;53.240;8.798;2023-10-31T01:00:58;12.70;99.90
31765;DHT22;18338;53.240;8.798;2023-10-31T01:03:25;12.70;99.90
31765;DHT22;18338;53.240;8.798;2023-10-31T01:05:52;12.70;99.90
31765;DHT22;18338;53.240;8.798;2023-10-31T01:08:19;12.70;99.90
31765;DHT22;18338;53.240;8.798;2023-10-31T01:10:46;12.70;99.90
31765;DHT22;18338;53.240;8.798;2023-10-31T01:13:13;12.70;99.90
31765;DHT22;18338;53.240;8.798;2023-10-31T01:15:39;12.80;99.90
31765;DHT22;18338;53.240;8.798;2023-10-31T01:18:06;12.70;99.90
31765;DHT22;18338;53.240;8.798;2023-10-31T01:20:34;12.70;99.90
31765;DHT22;18338;53.240;8.798;2023-10-31T01:23:01;12.70;99.90
31765;DHT22;18338;53.240;8.798;2023-10-31T01:25:28;12.70;99.90
31765;DHT22;18338;53.240;8.798;2023-10-31T01:27:55;12.70;99.90
31765;DHT22;18338;53.240;8.798;2023-10-31T01:30:22;12.80;99.90
31765;DHT22;18338;53.240;8.798;2023-10-31T01:32:49;12.80;99.90
31765;DHT22;18338;53.240;8.798;2023-10-31T01:35:16;12.80;99.90
31765;DHT22;18338;53.240;8.798;2023-10-31T01:37:43;12.80;99.90
31765;DHT22;18338;53.240;8.798;2023-10-31T01:40:13;12.80;99.90
31765;DHT22;18338;53.240;8.798;2023-10-31T01:42:40;12.80;99.90
31765;DHT22;18338;53.240;8.798;2023-10-31T01:45:08;12.80;99.90
31765;DHT22;18338;53.240;8.798;2023-10-31T01:47:35;12.80;99.90
31765;DHT22;18338;53.240;8.798;2023-10-31T01:50:02;12.80;99.90
31765;DHT22;18338;53.240;8.798;2023-10-31T01:52:29;12.80;99.90
31765;DHT22;18338;53.240;8.798;2023-10-31T01:55:00;12.80;99.90
31765;DHT22;18338;53.240;8.798;2023-10-31T01:57:29;12.80;99.90
31765;DHT22;18338;53.240;8.798;2023-10-31T01:59:56;12.80;99.90
31765;DHT22;18338;53.240;8.798;2023-10-31T02:02:23;12.80;99.90
31765;DHT22;18338;53.240;8.798;2023-10-31T02:04:53;12.80;99.90
31765;DHT22;18338;53.240;8.798;2023-10-31T02:07:20;12.80;99.90
31765;DHT22;18338;53.240;8.798;2023-10-31T02:09:46;12.80;99.90
31765;DHT22;18338;53.240;8.798;2023-10-31T02:12:40;12.80;99.90
31765;DHT22;18338;53.240;8.798;2023-10-31T02:15:08;12.80;99.90
31765;DHT22;18338;53.240;8.798;2023-10-31T02:17:35;12.80;99.90
31765;DHT22;18338;53.240;8.798;2023-10-31T02:20:01;12.80;99.90
31765;DHT22;18338;53.240;8.798;2023-10-31T02:22:29;12.80;99.90
31765;DHT22;18338;53.240;8.798;2023-10-31T02:24:56;12.80;99.90
31765;DHT22;18338;53.240;8.798;2023-10-31T02:27:23;12.80;99.90
31765;DHT22;18338;53.240;8.798;2023-10-31T02:29:49;12.90;99.90
31765;DHT22;18338;53.240;8.798;2023-10-31T02:32:16;12.90;99.90
31765;DHT22;18338;53.240;8.798;2023-10-31T02:34:44;12.80;99.90
31765;DHT22;18338;53.240;8.798;2023-10-31T02:37:12;12.90;99.90
31765;DHT22;18338;53.240;8.798;2023-10-31T02:39:38;12.90;99.90
31765;DHT22;18338;53.240;8.798;2023-10-31T02:42:05;12.90;99.90
31765;DHT22;18338;53.240;8.798;2023-10-31T02:44:32;12.90;99.90
31765;DHT22;18338;53.240;8.798;2023-10-31T02:46:59;12.90;99.90
31765;DHT22;18338;53.240;8.798;2023-10-31T02:49:26;12.90;99.90
31765;DHT22;18338;53.240;8.798;2023-10-31T02:51:53;12.90;99.90
31765;DHT22;18338;53.240;8.798;2023-10-31T02:54:20;12.80;99.90
31765;DHT22;18338;53.240;8.798;2023-10-31T02:56:47;12.80;99.90
31765;DHT22;18338;53.240;8.798;2023-10-31T02:59:13;12.80;99.90
31765;DHT22;18338;53.240;8.798;2023-10-31T03:01:40;12.90;99.90
31765;DHT22;18338;53.240;8.798;2023-10-31T03:04:07;12.90;99.90
31765;DHT22;18338;53.240;8.798;2023-10-31T03:06:34;12.90;99.90
31765;DHT22;18338;53.240;8.798;2023-10-31T03:09:01;12.90;99.90
31765;DHT22;18338;53.240;8.798;2023-10-31T03:11:28;12.90;99.90
31765;DHT22;18338;53.240;8.798;2023-10-31T03:13:55;12.90;99.90
31765;DHT22;18338;53.240;8.798;2023-10-31T03:16:23;12.90;99.90
31765;DHT22;18338;53.240;8.798;2023-10-31T03:18:50;12.90;99.90
31765;DHT22;18338;53.240;8.798;2023-10-31T03:21:18;13.00;99.90
31765;DHT22;18338;53.240;8.798;2023-10-31T03:23:48;13.00;99.90
31765;DHT22;18338;53.240;8.798;2023-10-31T03:26:18;13.00;99.90
31765;DHT22;18338;53.240;8.798;2023-10-31T03:28:46;13.00;99.90
31765;DHT22;18338;53.240;8.798;2023-10-31T03:31:13;13.00;99.90
31765;DHT22;18338;53.240;8.798;2023-10-31T03:33:41;13.00;99.90
31765;DHT22;18338;53.240;8.798;2023-10-31T03:36:09;13.00;99.90
31765;DHT22;18338;53.240;8.798;2023-10-31T03:38:36;12.90;99.90
31765;DHT22;18338;53.240;8.798;2023-10-31T03:41:03;13.00;99.90
31765;DHT22;18338;53.240;8.798;2023-10-31T03:43:31;13.00;99.90
31765;DHT22;18338;53.240;8.798;2023-10-31T03:45:57;13.00;99.90
31765;DHT22;18338;53.240;8.798;2023-10-31T03:48:24;13.00;99.90
31765;DHT22;18338;53.240;8.798;2023-10-31T03:50:51;13.00;99.90
31765;DHT22;18338;53.240;8.798;2023-10-31T03:53:18;13.00;99.90
31765;DHT22;18338;53.240;8.798;2023-10-31T03:55:45;12.90;99.90
31765;DHT22;18338;53.240;8.798;2023-10-31T03:58:12;13.00;99.90
31765;DHT22;18338;53.240;8.798;2023-10-31T04:00:39;13.00;99.90
31765;DHT22;18338;53.240;8.798;2023-10-31T04:03:07;12.90;99.90
31765;DHT22;18338;53.240;8.798;2023-10-31T04:05:34;12.90;99.90
31765;DHT22;18338;53.240;8.798;2023-10-31T04:08:01;13.00;99.90
31765;DHT22;18338;53.240;8.798;2023-10-31T04:10:29;12.90;99.90
31765;DHT22;18338;53.240;8.798;2023-10-31T04:12:55;13.00;99.90
31765;DHT22;18338;53.240;8.798;2023-10-31T04:15:22;13.00;99.90
31765;DHT22;18338;53.240;8.798;2023-10-31T04:17:49;13.00;99.90
31765;DHT22;18338;53.240;8.798;2023-10-31T04:20:15;13.00;99.90
31765;DHT22;18338;53.240;8.798;2023-10-31T04:22:42;13.00;99.90
31765;DHT22;18338;53.240;8.798;2023-10-31T04:25:10;13.00;99.90
31765;DHT22;18338;53.240;8.798;2023-10-31T04:27:37;13.00;99.90
31765;DHT22;18338;53.240;8.798;2023-10-31T04:30:04;13.00;99.90
31765;DHT22;18338;53.240;8.798;2023-10-31T04:32:31;13.00;99.90
31765;DHT22;18338;53.240;8.798;2023-10-31T04:34:58;13.00;99.90
31765;DHT22;18338;53.240;8.798;2023-10-31T04:37:25;13.00;99.90
31765;DHT22;18338;53.240;8.798;2023-10-31T04:39:51;13.00;99.90
31765;DHT22;18338;53.240;8.798;2023-10-31T04:42:18;13.00;99.90
31765;DHT22;18338;53.240;8.798;2023-10-31T04:44:47;13.00;99.90
31765;DHT22;18338;53.240;8.798;2023-10-31T04:47:13;13.00;99.90
31765;DHT22;18338;53.240;8.798;2023-10-31T04:49:41;13.00;99.90
31765;DHT22;18338;53.240;8.798;2023-10-31T04:52:08;13.00;99.90
31765;DHT22;18338;53.240;8.798;2023-10-31T04:54:34;13.00;99.90
31765;DHT22;18338;53.240;8.798;2023-10-31T04:57:01;13.00;99.90
31765;DHT22;18338;53.240;8.798;2023-10-31T04:59:30;13.00;99.90
31765;DHT22;18338;53.240;8.798;2023-10-31T05:01:58;13.00;99.90
31765;DHT22;18338;53.240;8.798;2023-10-31T05:04:25;13.00;99.90
31765;DHT22;18338;53.240;8.798;2023-10-31T05:06:52;13.00;99.90
31765;DHT22;18338;53.240;8.798;2023-10-31T05:09:19;13.10;99.90
31765;DHT22;18338;53.240;8.798;2023-10-31T05:11:47;13.00;99.90
31765;DHT22;18338;53.240;8.798;2023-10-31T05:14:14;13.10;99.90
31765;DHT22;18338;53.240;8.798;2023-10-31T05:16:42;13.10;99.90
31765;DHT22;18338;53.240;8.798;2023-10-31T05:19:10;13.10;99.90
31765;DHT22;18338;53.240;8.798;2023-10-31T05:21:37;13.20;99.90
31765;DHT22;18338;53.240;8.798;2023-10-31T05:24:04;13.20;99.90
31765;DHT22;18338;53.240;8.798;2023-10-31T05:26:31;13.10;99.90
31765;DHT22;18338;53.240;8.798;2023-10-31T05:28:58;13.10;99.90
31765;DHT22;18338;53.240;8.798;2023-10-31T05:31:26;13.10;99.90
31765;DHT22;18338;53.240;8.798;2023-10-31T05:33:53;13.10;99.90
31765;DHT22;18338;53.240;8.798;2023-10-31T05:36:20;13.10;99.90
31765;DHT22;18338;53.240;8.798;2023-10-31T05:38:48;13.10;99.90
31765;DHT22;18338;53.240;8.798;2023-10-31T05:41:15;13.10;99.90
31765;DHT22;18338;53.240;8.798;2023-10-31T05:43:42;13.10;99.90
31765;DHT22;18338;53.240;8.798;2023-10-31T05:46:09;13.10;99.90
31765;DHT22;18338;53.240;8.798;2023-10-31T05:48:44;13.00;99.90
31765;DHT22;18338;53.240;8.798;2023-10-31T05:51:12;13.00;99.90
31765;DHT22;18338;53.240;8.798;2023-10-31T05:53:41;13.00;99.90
31765;DHT22;18338;53.240;8.798;2023-10-31T05:56:09;13.00;99.90
31765;DHT22;18338;53.240;8.798;2023-10-31T05:58:38;13.00;99.90
31765;DHT22;18338;53.240;8.798;2023-10-31T06:01:06;13.00;99.90
31765;DHT22;18338;53.240;8.798;2023-10-31T06:03:37;12.90;99.90
31765;DHT22;18338;53.240;8.798;2023-10-31T06:06:05;12.80;99.90
31765;DHT22;18338;53.240;8.798;2023-10-31T06:08:32;12.50;99.90
31765;DHT22;18338;53.240;8.798;2023-10-31T06:10:59;12.30;99.90
31765;DHT22;18338;53.240;8.798;2023-10-31T06:13:27;12.10;99.90
31765;DHT22;18338;53.240;8.798;2023-10-31T06:15:55;11.90;99.90
31765;DHT22;18338;53.240;8.798;2023-10-31T06:18:27;11.80;99.90
31765;DHT22;18338;53.240;8.798;2023-10-31T06:20:55;11.70;99.90
31765;DHT22;18338;53.240;8.798;2023-10-31T06:23:22;11.60;99.90
31765;DHT22;18338;53.240;8.798;2023-10-31T06:25:49;11.50;99.90
31765;DHT22;18338;53.240;8.798;2023-10-31T06:28:16;11.40;99.90
31765;DHT22;18338;53.240;8.798;2023-10-31T06:30:43;11.40;99.90
31765;DHT22;18338;53.240;8.798;2023-10-31T06:33:10;11.30;99.90
31765;DHT22;18338;53.240;8.798;2023-10-31T06:35:39;11.30;99.90
31765;DHT22;18338;53.240;8.798;2023-10-31T06:38:06;11.20;99.90
31765;DHT22;18338;53.240;8.798;2023-10-31T06:40:33;11.20;99.90
31765;DHT22;18338;53.240;8.798;2023-10-31T06:43:01;11.20;99.90
31765;DHT22;18338;53.240;8.798;2023-10-31T06:45:28;11.20;99.90
31765;DHT22;18338;53.240;8.798;2023-10-31T06:47:55;11.20;99.90
31765;DHT22;18338;53.240;8.798;2023-10-31T06:50:22;11.20;99.90
31765;DHT22;18338;53.240;8.798;2023-10-31T06:52:49;11.10;99.90
31765;DHT22;18338;53.240;8.798;2023-10-31T06:55:16;11.10;99.90
31765;DHT22;18338;53.240;8.798;2023-10-31T06:57:43;11.10;99.90
31765;DHT22;18338;53.240;8.798;2023-10-31T07:00:11;11.00;99.90
31765;DHT22;18338;53.240;8.798;2023-10-31T07:02:38;11.00;99.90
31765;DHT22;18338;53.240;8.798;2023-10-31T07:05:05;11.00;99.90
31765;DHT22;18338;53.240;8.798;2023-10-31T07:07:32;11.00;99.90
31765;DHT22;18338;53.240;8.798;2023-10-31T07:09:59;11.00;99.90
31765;DHT22;18338;53.240;8.798;2023-10-31T07:12:26;10.90;99.90
31765;DHT22;18338;53.240;8.798;2023-10-31T07:14:53;11.00;99.90
31765;DHT22;18338;53.240;8.798;2023-10-31T07:17:20;10.90;99.90
31765;DHT22;18338;53.240;8.798;2023-10-31T07:19:47;10.90;99.90
31765;DHT22;18338;53.240;8.798;2023-10-31T07:22:14;10.90;99.90
31765;DHT22;18338;53.240;8.798;2023-10-31T07:24:41;10.90;99.90
31765;DHT22;18338;53.240;8.798;2023-10-31T07:27:09;10.90;99.90
31765;DHT22;18338;53.240;8.798;2023-10-31T07:29:39;10.90;99.90
31765;DHT22;18338;53.240;8.798;2023-10-31T07:32:08;10.90;99.90
31765;DHT22;18338;53.240;8.798;2023-10-31T07:34:40;10.80;99.90
31765;DHT22;18338;53.240;8.798;2023-10-31T07:37:07;10.90;99.90
31765;DHT22;18338;53.240;8.798;2023-10-31T07:39:34;10.80;99.90
31765;DHT22;18338;53.240;8.798;2023-10-31T07:42:01;10.80;99.90
31765;DHT22;18338;53.240;8.798;2023-10-31T07:44:28;10.80;99.90
31765;DHT22;18338;53.240;8.798;2023-10-31T07:46:55;10.80;99.90
31765;DHT22;18338;53.240;8.798;2023-10-31T07:49:22;10.70;99.90
31765;DHT22;18338;53.240;8.798;2023-10-31T07:51:48;10.70;99.90
31765;DHT22;18338;53.240;8.798;2023-10-31T07:54:15;10.60;99.90
31765;DHT22;18338;53.240;8.798;2023-10-31T07:56:42;10.60;99.90
31765;DHT22;18338;53.240;8.798;2023-10-31T07:59:09;10.60;99.90
31765;DHT22;18338;53.240;8.798;2023-10-31T08:01:37;10.50;99.90
31765;DHT22;18338;53.240;8.798;2023-10-31T08:04:05;10.50;99.90
31765;DHT22;18338;53.240;8.798;2023-10-31T08:06:32;10.50;99.90
31765;DHT22;18338;53.240;8.798;2023-10-31T08:08:59;10.50;99.90
31765;DHT22;18338;53.240;8.798;2023-10-31T08:11:26;10.50;99.90
31765;DHT22;18338;53.240;8.798;2023-10-31T08:13:53;10.50;99.90
31765;DHT22;18338;53.240;8.798;2023-10-31T08:16:20;10.50;99.90
31765;DHT22;18338;53.240;8.798;2023-10-31T08:18:47;10.50;99.90
31765;DHT22;18338;53.240;8.798;2023-10-31T08:21:14;10.50;99.90
31765;DHT22;18338;53.240;8.798;2023-10-31T08:23:41;10.50;99.90
31765;DHT22;18338;53.240;8.798;2023-10-31T08:26:13;10.50;99.90
31765;DHT22;18338;53.240;8.798;2023-10-31T08:28:40;10.50;99.90
31765;DHT22;18338;53.240;8.798;2023-10-31T08:31:07;10.60;99.90
31765;DHT22;18338;53.240;8.798;2023-10-31T08:33:34;10.60;99.90
31765;DHT22;18338;53.240;8.798;2023-10-31T08:36:01;10.70;99.90
31765;DHT22;18338;53.240;8.798;2023-10-31T08:38:28;10.60;99.90
31765;DHT22;18338;53.240;8.798;2023-10-31T08:40:58;10.70;99.90
31765;DHT22;18338;53.240;8.798;2023-10-31T08:43:26;10.70;99.90
31765;DHT22;18338;53.240;8.798;2023-10-31T08:45:53;10.70;99.90
31765;DHT22;18338;53.240;8.798;2023-10-31T08:48:19;10.70;99.90
31765;DHT22;18338;53.240;8.798;2023-10-31T08:50:46;10.80;99.90
31765;DHT22;18338;53.240;8.798;2023-10-31T08:53:13;10.80;99.90
31765;DHT22;18338;53.240;8.798;2023-10-31T08:55:40;10.80;99.90
31765;DHT22;18338;53.240;8.798;2023-10-31T08:58:14;10.90;99.90
31765;DHT22;18338;53.240;8.798;2023-10-31T09:00:41;10.90;99.90
31765;DHT22;18338;53.240;8.798;2023-10-31T09:03:08;11.00;99.90
31765;DHT22;18338;53.240;8.798;2023-10-31T09:05:35;11.00;99.90
31765;DHT22;18338;53.240;8.798;2023-10-31T09:08:02;11.00;99.90
31765;DHT22;18338;53.240;8.798;2023-10-31T09:10:29;11.10;99.90
31765;DHT22;18338;53.240;8.798;2023-10-31T09:12:56;11.10;99.90
31765;DHT22;18338;53.240;8.798;2023-10-31T09:15:23;11.10;99.90
31765;DHT22;18338;53.240;8.798;2023-10-31T09:17:50;11.10;99.90
31765;DHT22;18338;53.240;8.798;2023-10-31T09:20:17;11.10;99.90
31765;DHT22;18338;53.240;8.798;2023-10-31T09:22:44;11.10;99.90
31765;DHT22;18338;53.240;8.798;2023-10-31T09:25:11;11.10;99.90
31765;DHT22;18338;53.240;8.798;2023-10-31T09:27:41;11.10;99.90
31765;DHT22;18338;53.240;8.798;2023-10-31T09:30:08;11.10;99.90
31765;DHT22;18338;53.240;8.798;2023-10-31T09:32:35;11.10;99.90
31765;DHT22;18338;53.240;8.798;2023-10-31T09:35:03;11.10;99.90
31765;DHT22;18338;53.240;8.798;2023-10-31T09:37:30;11.00;99.90
31765;DHT22;18338;53.240;8.798;2023-10-31T09:39:57;11.10;99.90
31765;DHT22;18338;53.240;8.798;2023-10-31T09:42:24;11.00;99.90
31765;DHT22;18338;53.240;8.798;2023-10-31T09:44:51;11.00;99.90
31765;DHT22;18338;53.240;8.798;2023-10-31T09:47:20;11.10;99.90
31765;DHT22;18338;53.240;8.798;2023-10-31T09:49:47;11.10;99.90
31765;DHT22;18338;53.240;8.798;2023-10-31T09:52:14;11.20;99.90
31765;DHT22;18338;53.240;8.798;2023-10-31T09:54:41;11.20;99.90
31765;DHT22;18338;53.240;8.798;2023-10-31T09:57:14;11.30;99.90
31765;DHT22;18338;53.240;8.798;2023-10-31T09:59:41;11.30;99.90
31765;DHT22;18338;53.240;8.798;2023-10-31T10:02:08;11.30;99.90
31765;DHT22;18338;53.240;8.798;2023-10-31T10:04:37;11.40;99.90
31765;DHT22;18338;53.240;8.798;2023-10-31T10:07:05;11.50;99.90
31765;DHT22;18338;53.240;8.798;2023-10-31T10:09:32;11.50;99.90
31765;DHT22;18338;53.240;8.798;2023-10-31T10:12:00;11.60;99.90
31765;DHT22;18338;53.240;8.798;2023-10-31T10:14:27;11.60;99.90
31765;DHT22;18338;53.240;8.798;2023-10-31T10:16:55;11.70;99.90
31765;DHT22;18338;53.240;8.798;2023-10-31T10:19:22;11.70;99.90
31765;DHT22;18338;53.240;8.798;2023-10-31T10:21:57;11.80;99.90
31765;DHT22;18338;53.240;8.798;2023-10-31T10:24:25;11.80;99.90
31765;DHT22;18338;53.240;8.798;2023-10-31T10:26:52;11.80;99.90
31765;DHT22;18338;53.240;8.798;2023-10-31T10:29:19;11.90;99.90
31765;DHT22;18338;53.240;8.798;2023-10-31T10:31:46;11.90;99.90
31765;DHT22;18338;53.240;8.798;2023-10-31T10:34:14;11.90;99.90
31765;DHT22;18338;53.240;8.798;2023-10-31T10:36:48;12.00;99.90
31765;DHT22;18338;53.240;8.798;2023-10-31T10:39:21;12.10;99.90
31765;DHT22;18338;53.240;8.798;2023-10-31T10:42:00;12.20;99.90
31765;DHT22;18338;53.240;8.798;2023-10-31T10:44:34;12.20;99.90
31765;DHT22;18338;53.240;8.798;2023-10-31T10:47:06;12.20;99.90
31765;DHT22;18338;53.240;8.798;2023-10-31T10:49:36;12.20;99.90
31765;DHT22;18338;53.240;8.798;2023-10-31T10:52:19;12.10;99.90
31765;DHT22;18338;53.240;8.798;2023-10-31T10:57:35;12.50;99.90
31765;DHT22;18338;53.240;8.798;2023-10-31T11:00:04;12.70;99.90
31765;DHT22;18338;53.240;8.798;2023-10-31T11:02:36;12.60;99.90
31765;DHT22;18338;53.240;8.798;2023-10-31T11:05:07;12.60;99.90
31765;DHT22;18338;53.240;8.798;2023-10-31T11:07:40;12.70;99.90
31765;DHT22;18338;53.240;8.798;2023-10-31T11:10:08;12.70;99.90
31765;DHT22;18338;53.240;8.798;2023-10-31T11:12:36;12.80;99.90
31765;DHT22;18338;53.240;8.798;2023-10-31T11:15:05;13.00;99.90
31765;DHT22;18338;53.240;8.798;2023-10-31T11:17:41;13.00;99.90
31765;DHT22;18338;53.240;8.798;2023-10-31T11:20:11;13.10;99.90
31765;DHT22;18338;53.240;8.798;2023-10-31T11:22:42;13.10;99.90
31765;DHT22;18338;53.240;8.798;2023-10-31T11:25:14;13.10;99.90
31765;DHT22;18338;53.240;8.798;2023-10-31T11:27:53;12.90;99.90
31765;DHT22;18338;53.240;8.798;2023-10-31T11:30:29;12.90;99.90
31765;DHT22;18338;53.240;8.798;2023-10-31T11:32:58;12.90;99.90
31765;DHT22;18338;53.240;8.798;2023-10-31T11:35:29;12.80;99.90
31765;DHT22;18338;53.240;8.798;2023-10-31T11:38:04;12.70;99.90
31765;DHT22;18338;53.240;8.798;2023-10-31T11:43:11;12.50;99.90
31765;DHT22;18338;53.240;8.798;2023-10-31T11:45:45;12.70;99.90
31765;DHT22;18338;53.240;8.798;2023-10-31T11:48:15;12.90;99.90
31765;DHT22;18338;53.240;8.798;2023-10-31T11:50:42;13.60;99.90
31765;DHT22;18338;53.240;8.798;2023-10-31T11:53:14;14.30;99.90
31765;DHT22;18338;53.240;8.798;2023-10-31T11:55:47;14.60;99.90
31765;DHT22;18338;53.240;8.798;2023-10-31T11:58:22;14.90;99.90
31765;DHT22;18338;53.240;8.798;2023-10-31T12:00:51;14.60;99.90
31765;DHT22;18338;53.240;8.798;2023-10-31T12:03:20;15.00;99.90
31765;DHT22;18338;53.240;8.798;2023-10-31T12:05:59;14.80;99.90
31765;DHT22;18338;53.240;8.798;2023-10-31T12:11:14;14.00;99.90
31765;DHT22;18338;53.240;8.798;2023-10-31T12:16:32;13.50;99.90
31765;DHT22;18338;53.240;8.798;2023-10-31T12:19:04;13.20;99.90
31765;DHT22;18338;53.240;8.798;2023-10-31T12:21:42;13.00;99.90
31765;DHT22;18338;53.240;8.798;2023-10-31T12:24:12;12.70;99.90
31765;DHT22;18338;53.240;8.798;2023-10-31T12:26:40;12.40;99.90
31765;DHT22;18338;53.240;8.798;2023-10-31T12:29:18;12.00;99.90
31765;DHT22;18338;53.240;8.798;2023-10-31T12:31:51;12.00;99.90
31765;DHT22;18338;53.240;8.798;2023-10-31T12:34:23;11.80;99.90
31765;DHT22;18338;53.240;8.798;2023-10-31T12:36:53;11.80;99.90
31765;DHT22;18338;53.240;8.798;2023-10-31T12:39:23;11.90;99.90
31765;DHT22;18338;53.240;8.798;2023-10-31T12:41:51;11.70;99.90
31765;DHT22;18338;53.240;8.798;2023-10-31T12:44:23;11.70;99.90
31765;DHT22;18338;53.240;8.798;2023-10-31T12:46:51;11.60;99.90
31765;DHT22;18338;53.240;8.798;2023-10-31T12:49:20;11.50;99.90
31765;DHT22;18338;53.240;8.798;2023-10-31T12:51:58;11.50;99.90
31765;DHT22;18338;53.240;8.798;2023-10-31T12:54:37;11.20;99.90
31765;DHT22;18338;53.240;8.798;2023-10-31T12:57:08;11.20;99.90
31765;DHT22;18338;53.240;8.798;2023-10-31T12:59:37;11.30;99.90
31765;DHT22;18338;53.240;8.798;2023-10-31T13:02:06;11.40;99.90
31765;DHT22;18338;53.240;8.798;2023-10-31T13:04:33;11.40;99.90
31765;DHT22;18338;53.240;8.798;2023-10-31T13:07:03;11.40;99.90
31765;DHT22;18338;53.240;8.798;2023-10-31T13:09:30;11.20;99.90
31765;DHT22;18338;53.240;8.798;2023-10-31T13:12:02;11.00;99.90
31765;DHT22;18338;53.240;8.798;2023-10-31T13:14:30;11.00;99.90
31765;DHT22;18338;53.240;8.798;2023-10-31T13:16:57;10.90;99.90
31765;DHT22;18338;53.240;8.798;2023-10-31T13:19:23;10.70;99.90
31765;DHT22;18338;53.240;8.798;2023-10-31T13:21:50;10.70;99.90
31765;DHT22;18338;53.240;8.798;2023-10-31T13:24:20;10.70;99.90
31765;DHT22;18338;53.240;8.798;2023-10-31T13:26:57;10.80;99.90
31765;DHT22;18338;53.240;8.798;2023-10-31T13:29:24;10.80;99.90
31765;DHT22;18338;53.240;8.798;2023-10-31T13:31:54;10.80;99.90
31765;DHT22;18338;53.240;8.798;2023-10-31T13:34:22;10.70;99.90
31765;DHT22;18338;53.240;8.798;2023-10-31T13:36:50;10.70;99.90
31765;DHT22;18338;53.240;8.798;2023-10-31T13:39:20;10.60;99.90
31765;DHT22;18338;53.240;8.798;2023-10-31T13:41:48;10.50;99.90
31765;DHT22;18338;53.240;8.798;2023-10-31T13:44:14;10.60;99.90
31765;DHT22;18338;53.240;8.798;2023-10-31T13:46:42;10.70;99.90
31765;DHT22;18338;53.240;8.798;2023-10-31T13:49:10;11.00;99.90
31765;DHT22;18338;53.240;8.798;2023-10-31T13:51:39;11.70;99.90
31765;DHT22;18338;53.240;8.798;2023-10-31T13:54:05;12.40;99.90
31765;DHT22;18338;53.240;8.798;2023-10-31T13:56:32;12.30;99.90
31765;DHT22;18338;53.240;8.798;2023-10-31T13:59:02;11.80;99.90
31765;DHT22;18338;53.240;8.798;2023-10-31T14:01:36;11.20;99.90
31765;DHT22;18338;53.240;8.798;2023-10-31T14:04:03;10.80;99.90
31765;DHT22;18338;53.240;8.798;2023-10-31T14:06:30;10.50;99.90
31765;DHT22;18338;53.240;8.798;2023-10-31T14:09:00;10.30;99.90
31765;DHT22;18338;53.240;8.798;2023-10-31T14:11:27;10.20;99.90
31765;DHT22;18338;53.240;8.798;2023-10-31T14:13:54;10.10;99.90
31765;DHT22;18338;53.240;8.798;2023-10-31T14:16:21;10.30;99.90
31765;DHT22;18338;53.240;8.798;2023-10-31T14:18:47;10.50;99.90
31765;DHT22;18338;53.240;8.798;2023-10-31T14:21:14;10.50;99.90
31765;DHT22;18338;53.240;8.798;2023-10-31T14:23:41;10.30;99.90
31765;DHT22;18338;53.240;8.798;2023-10-31T14:26:08;10.00;99.90
31765;DHT22;18338;53.240;8.798;2023-10-31T14:28:34;10.00;99.90
31765;DHT22;18338;53.240;8.798;2023-10-31T14:31:01;10.70;99.90
31765;DHT22;18338;53.240;8.798;2023-10-31T14:33:28;11.30;99.90
31765;DHT22;18338;53.240;8.798;2023-10-31T14:35:56;12.00;99.90
31765;DHT22;18338;53.240;8.798;2023-10-31T14:38:23;12.20;99.90
31765;DHT22;18338;53.240;8.798;2023-10-31T14:40:50;12.70;99.90
31765;DHT22;18338;53.240;8.798;2023-10-31T14:43:17;13.00;99.90
31765;DHT22;18338;53.240;8.798;2023-10-31T14:45:45;12.90;99.90
31765;DHT22;18338;53.240;8.798;2023-10-31T14:48:12;12.70;99.90
31765;DHT22;18338;53.240;8.798;2023-10-31T14:50:38;12.40;99.90
31765;DHT22;18338;53.240;8.798;2023-10-31T14:53:06;12.30;99.90
31765;DHT22;18338;53.240;8.798;2023-10-31T14:55:33;12.60;99.90
31765;DHT22;18338;53.240;8.798;2023-10-31T14:57:59;12.90;99.90
31765;DHT22;18338;53.240;8.798;2023-10-31T15:00:26;13.00;99.90
31765;DHT22;18338;53.240;8.798;2023-10-31T15:02:53;12.70;99.90
31765;DHT22;18338;53.240;8.798;2023-10-31T15:05:20;12.30;99.90
31765;DHT22;18338;53.240;8.798;2023-10-31T15:07:47;11.60;99.90
31765;DHT22;18338;53.240;8.798;2023-10-31T15:10:21;11.30;99.90
31765;DHT22;18338;53.240;8.798;2023-10-31T15:12:50;10.80;99.90
31765;DHT22;18338;53.240;8.798;2023-10-31T15:15:17;10.50;99.90
31765;DHT22;18338;53.240;8.798;2023-10-31T15:17:45;10.00;99.90
31765;DHT22;18338;53.240;8.798;2023-10-31T15:20:12;9.70;99.90
31765;DHT22;18338;53.240;8.798;2023-10-31T15:22:41;9.40;99.90
31765;DHT22;18338;53.240;8.798;2023-10-31T15:25:09;9.30;99.90
31765;DHT22;18338;53.240;8.798;2023-10-31T15:27:36;9.30;99.90
31765;DHT22;18338;53.240;8.798;2023-10-31T15:30:06;9.10;99.90
31765;DHT22;18338;53.240;8.798;2023-10-31T15:32:33;8.90;99.90
31765;DHT22;18338;53.240;8.798;2023-10-31T15:35:00;8.70;99.90
31765;DHT22;18338;53.240;8.798;2023-10-31T15:37:28;8.50;99.90
31765;DHT22;18338;53.240;8.798;2023-10-31T15:39:55;8.40;99.90
31765;DHT22;18338;53.240;8.798;2023-10-31T15:42:22;8.30;99.90
31765;DHT22;18338;53.240;8.798;2023-10-31T15:44:50;8.10;99.90
31765;DHT22;18338;53.240;8.798;2023-10-31T15:47:16;8.00;99.90
31765;DHT22;18338;53.240;8.798;2023-10-31T15:49:44;7.90;99.90